sensor_id;sensor_type;location;lat;lon;timestamp;temperature;humidity
21582;DHT22;10952;50.836;4.348;2023-07-16T00:01:35;19.50;99.90
21582;DHT22;10952;50.836;4.348;2023-07-16T00:04:01;19.50;99.90
21582;DHT22;10952;50.836;4.348;2023-07-16T00:06:27;19.40;99.90
21582;DHT22;10952;50.836;4.348;2023-07-16T00:08:52;19.40;99.90
21582;DHT22;10952;50.836;4.348;2023-07-16T00:11:18;19.40;99.90
21582;DHT22;10952;50.836;4.348;2023-07-16T00:13:44;19.40;99.90
21582;DHT22;10952;50.836;4.348;2023-07-16T00:16:13;19.40;99.90
21582;DHT22;10952;50.836;4.348;2023-07-16T00:18:39;19.40;99.90
21582;DHT22;10952;50.836;4.348;2023-07-16T00:21:05;19.40;99.90
21582;DHT22;10952;50.836;4.348;2023-07-16T00:23:30;19.40;99.90
21582;DHT22;10952;50.836;4.348;2023-07-16T00:25:56;19.40;99.90
21582;DHT22;10952;50.836;4.348;2023-07-16T00:28:22;19.40;99.90
21582;DHT22;10952;50.836;4.348;2023-07-16T00:30:49;19.30;99.90
21582;DHT22;10952;50.836;4.348;2023-07-16T00:33:14;19.30;99.90
21582;DHT22;10952;50.836;4.348;2023-07-16T00:35:49;19.20;99.90
21582;DHT22;10952;50.836;4.348;2023-07-16T00:38:18;19.30;99.90
21582;DHT22;10952;50.836;4.348;2023-07-16T00:40:44;19.10;99.90
21582;DHT22;10952;50.836;4.348;2023-07-16T00:43:10;19.00;99.90
21582;DHT22;10952;50.836;4.348;2023-07-16T00:45:40;19.10;99.90
21582;DHT22;10952;50.836;4.348;2023-07-16T00:48:06;19.00;99.90
21582;DHT22;10952;50.836;4.348;2023-07-16T00:50:36;18.90;99.90
21582;DHT22;10952;50.836;4.348;2023-07-16T00:53:08;18.90;99.90
21582;DHT22;10952;50.836;4.348;2023-07-16T00:55:35;18.90;99.90
21582;DHT22;10952;50.836;4.348;2023-07-16T00:58:06;18.90;99.90
21582;DHT22;10952;50.836;4.348;2023-07-16T01:00:33;18.90;99.90
21582;DHT22;10952;50.836;4.348;2023-07-16T01:03:01;18.80;99.90
21582;DHT22;10952;50.836;4.348;2023-07-16T01:05:31;18.80;99.90
21582;DHT22;10952;50.836;4.348;2023-07-16T01:08:03;18.80;99.90
21582;DHT22;10952;50.836;4.348;2023-07-16T01:10:29;18.80;99.90
21582;DHT22;10952;50.836;4.348;2023-07-16T01:12:56;18.70;99.90
21582;DHT22;10952;50.836;4.348;2023-07-16T01:15:23;18.70;99.90
21582;DHT22;10952;50.836;4.348;2023-07-16T01:17:49;18.80;99.90
21582;DHT22;10952;50.836;4.348;2023-07-16T01:20:14;18.70;99.90
21582;DHT22;10952;50.836;4.348;2023-07-16T01:25:54;18.70;99.90
21582;DHT22;10952;50.836;4.348;2023-07-16T01:31:20;18.70;99.90
21582;DHT22;10952;50.836;4.348;2023-07-16T01:33:49;18.70;99.90
21582;DHT22;10952;50.836;4.348;2023-07-16T01:36:16;18.60;99.90
21582;DHT22;10952;50.836;4.348;2023-07-16T01:38:44;18.60;99.90
21582;DHT22;10952;50.836;4.348;2023-07-16T01:41:11;18.50;99.90
21582;DHT22;10952;50.836;4.348;2023-07-16T01:43:37;18.50;99.90
21582;DHT22;10952;50.836;4.348;2023-07-16T01:46:03;18.60;99.90
21582;DHT22;10952;50.836;4.348;2023-07-16T01:48:33;18.70;99.90
21582;DHT22;10952;50.836;4.348;2023-07-16T01:50:59;18.70;99.90
21582;DHT22;10952;50.836;4.348;2023-07-16T01:53:25;18.60;99.90
21582;DHT22;10952;50.836;4.348;2023-07-16T01:55:50;18.50;99.90
21582;DHT22;10952;50.836;4.348;2023-07-16T01:58:16;18.50;99.90
21582;DHT22;10952;50.836;4.348;2023-07-16T02:00:42;18.50;99.90
21582;DHT22;10952;50.836;4.348;2023-07-16T02:03:08;18.40;99.90
21582;DHT22;10952;50.836;4.348;2023-07-16T02:05:34;18.40;99.90
21582;DHT22;10952;50.836;4.348;2023-07-16T02:07:59;18.40;99.90
21582;DHT22;10952;50.836;4.348;2023-07-16T02:10:26;18.30;99.90
21582;DHT22;10952;50.836;4.348;2023-07-16T02:12:51;18.20;99.90
21582;DHT22;10952;50.836;4.348;2023-07-16T02:15:17;18.30;99.90
21582;DHT22;10952;50.836;4.348;2023-07-16T02:17:44;18.20;99.90
21582;DHT22;10952;50.836;4.348;2023-07-16T02:20:10;18.20;99.90
21582;DHT22;10952;50.836;4.348;2023-07-16T02:22:37;18.20;99.90
21582;DHT22;10952;50.836;4.348;2023-07-16T02:25:03;18.20;99.90
21582;DHT22;10952;50.836;4.348;2023-07-16T02:27:29;18.10;99.90
21582;DHT22;10952;50.836;4.348;2023-07-16T02:29:55;18.10;99.90
21582;DHT22;10952;50.836;4.348;2023-07-16T02:32:21;18.10;99.90
21582;DHT22;10952;50.836;4.348;2023-07-16T02:34:47;18.00;99.90
21582;DHT22;10952;50.836;4.348;2023-07-16T02:37:13;18.00;99.90
21582;DHT22;10952;50.836;4.348;2023-07-16T02:39:40;18.00;99.90
21582;DHT22;10952;50.836;4.348;2023-07-16T02:42:06;18.00;99.90
21582;DHT22;10952;50.836;4.348;2023-07-16T02:44:32;17.90;99.90
21582;DHT22;10952;50.836;4.348;2023-07-16T02:46:58;18.00;99.90
21582;DHT22;10952;50.836;4.348;2023-07-16T02:49:23;18.00;99.90
21582;DHT22;10952;50.836;4.348;2023-07-16T02:51:49;18.00;99.90
21582;DHT22;10952;50.836;4.348;2023-07-16T02:54:15;18.00;99.90
21582;DHT22;10952;50.836;4.348;2023-07-16T02:56:40;18.10;99.90
21582;DHT22;10952;50.836;4.348;2023-07-16T02:59:06;18.00;99.90
21582;DHT22;10952;50.836;4.348;2023-07-16T03:01:32;17.90;99.90
21582;DHT22;10952;50.836;4.348;2023-07-16T03:03:57;18.00;99.90
21582;DHT22;10952;50.836;4.348;2023-07-16T03:06:23;18.00;99.90
21582;DHT22;10952;50.836;4.348;2023-07-16T03:08:49;17.90;99.90
21582;DHT22;10952;50.836;4.348;2023-07-16T03:11:15;17.90;99.90
21582;DHT22;10952;50.836;4.348;2023-07-16T03:13:41;17.90;99.90
21582;DHT22;10952;50.836;4.348;2023-07-16T03:16:06;17.90;99.90
21582;DHT22;10952;50.836;4.348;2023-07-16T03:18:32;17.90;99.90
21582;DHT22;10952;50.836;4.348;2023-07-16T03:20:58;17.90;99.90
21582;DHT22;10952;50.836;4.348;2023-07-16T03:23:24;17.80;99.90
21582;DHT22;10952;50.836;4.348;2023-07-16T03:25:51;17.80;99.90
21582;DHT22;10952;50.836;4.348;2023-07-16T03:28:17;17.70;99.90
21582;DHT22;10952;50.836;4.348;2023-07-16T03:30:49;17.70;99.90
21582;DHT22;10952;50.836;4.348;2023-07-16T03:33:15;17.70;99.90
21582;DHT22;10952;50.836;4.348;2023-07-16T03:35:49;17.70;99.90
21582;DHT22;10952;50.836;4.348;2023-07-16T03:38:15;17.80;99.90
21582;DHT22;10952;50.836;4.348;2023-07-16T03:40:47;17.80;99.90
21582;DHT22;10952;50.836;4.348;2023-07-16T03:43:13;17.70;99.90
21582;DHT22;10952;50.836;4.348;2023-07-16T03:45:39;17.70;99.90
21582;DHT22;10952;50.836;4.348;2023-07-16T03:48:05;17.70;99.90
21582;DHT22;10952;50.836;4.348;2023-07-16T03:50:31;17.60;99.90
21582;DHT22;10952;50.836;4.348;2023-07-16T03:52:57;17.60;99.90
21582;DHT22;10952;50.836;4.348;2023-07-16T03:55:22;17.60;99.90
21582;DHT22;10952;50.836;4.348;2023-07-16T03:57:48;17.50;99.90
21582;DHT22;10952;50.836;4.348;2023-07-16T04:00:14;17.60;99.90
21582;DHT22;10952;50.836;4.348;2023-07-16T04:02:39;17.50;99.90
21582;DHT22;10952;50.836;4.348;2023-07-16T04:05:06;17.50;99.90
21582;DHT22;10952;50.836;4.348;2023-07-16T04:07:31;17.50;99.90
21582;DHT22;10952;50.836;4.348;2023-07-16T04:09:57;17.40;99.90
21582;DHT22;10952;50.836;4.348;2023-07-16T04:12:23;17.50;99.90
21582;DHT22;10952;50.836;4.348;2023-07-16T04:14:48;17.40;99.90
21582;DHT22;10952;50.836;4.348;2023-07-16T04:17:14;17.40;99.90
21582;DHT22;10952;50.836;4.348;2023-07-16T04:19:39;17.40;99.90
21582;DHT22;10952;50.836;4.348;2023-07-16T04:22:05;17.40;99.90
21582;DHT22;10952;50.836;4.348;2023-07-16T04:24:31;17.50;99.90
21582;DHT22;10952;50.836;4.348;2023-07-16T04:26:58;17.40;99.90
21582;DHT22;10952;50.836;4.348;2023-07-16T04:29:24;17.40;99.90
21582;DHT22;10952;50.836;4.348;2023-07-16T04:31:50;17.50;99.90
21582;DHT22;10952;50.836;4.348;2023-07-16T04:34:16;17.40;99.90
21582;DHT22;10952;50.836;4.348;2023-07-16T04:36:42;17.40;99.90
21582;DHT22;10952;50.836;4.348;2023-07-16T04:39:08;17.50;99.90
21582;DHT22;10952;50.836;4.348;2023-07-16T04:41:33;17.50;99.90
21582;DHT22;10952;50.836;4.348;2023-07-16T04:43:59;17.50;99.90
21582;DHT22;10952;50.836;4.348;2023-07-16T04:46:25;17.40;99.90
21582;DHT22;10952;50.836;4.348;2023-07-16T04:48:51;17.40;99.90
21582;DHT22;10952;50.836;4.348;2023-07-16T04:51:16;17.30;99.90
21582;DHT22;10952;50.836;4.348;2023-07-16T04:53:42;17.30;99.90
21582;DHT22;10952;50.836;4.348;2023-07-16T04:56:14;17.40;99.90
21582;DHT22;10952;50.836;4.348;2023-07-16T04:58:41;17.30;99.90
21582;DHT22;10952;50.836;4.348;2023-07-16T05:01:07;17.40;99.90
21582;DHT22;10952;50.836;4.348;2023-07-16T05:03:35;17.50;99.90
21582;DHT22;10952;50.836;4.348;2023-07-16T05:06:01;17.50;99.90
21582;DHT22;10952;50.836;4.348;2023-07-16T05:08:26;17.50;99.90
21582;DHT22;10952;50.836;4.348;2023-07-16T05:10:52;17.50;99.90
21582;DHT22;10952;50.836;4.348;2023-07-16T05:13:18;17.50;99.90
21582;DHT22;10952;50.836;4.348;2023-07-16T05:15:44;17.40;99.90
21582;DHT22;10952;50.836;4.348;2023-07-16T05:18:10;17.50;99.90
21582;DHT22;10952;50.836;4.348;2023-07-16T05:20:35;17.60;99.90
21582;DHT22;10952;50.836;4.348;2023-07-16T05:23:01;17.70;99.90
21582;DHT22;10952;50.836;4.348;2023-07-16T05:25:27;17.60;99.90
21582;DHT22;10952;50.836;4.348;2023-07-16T05:27:53;17.50;99.90
21582;DHT22;10952;50.836;4.348;2023-07-16T05:30:19;17.50;99.90
21582;DHT22;10952;50.836;4.348;2023-07-16T05:32:44;17.60;99.90
21582;DHT22;10952;50.836;4.348;2023-07-16T05:35:10;17.50;99.90
21582;DHT22;10952;50.836;4.348;2023-07-16T05:37:36;17.60;99.90
21582;DHT22;10952;50.836;4.348;2023-07-16T05:40:02;17.60;99.90
21582;DHT22;10952;50.836;4.348;2023-07-16T05:42:28;17.60;99.90
21582;DHT22;10952;50.836;4.348;2023-07-16T05:44:54;17.60;99.90
21582;DHT22;10952;50.836;4.348;2023-07-16T05:47:20;17.70;99.90
21582;DHT22;10952;50.836;4.348;2023-07-16T05:49:46;17.60;99.90
21582;DHT22;10952;50.836;4.348;2023-07-16T05:52:11;17.60;99.90
21582;DHT22;10952;50.836;4.348;2023-07-16T05:54:37;17.60;99.90
21582;DHT22;10952;50.836;4.348;2023-07-16T05:57:03;17.70;99.90
21582;DHT22;10952;50.836;4.348;2023-07-16T05:59:28;17.70;99.90
21582;DHT22;10952;50.836;4.348;2023-07-16T06:01:54;17.70;99.90
21582;DHT22;10952;50.836;4.348;2023-07-16T06:04:23;17.80;99.90
21582;DHT22;10952;50.836;4.348;2023-07-16T06:06:49;17.70;99.90
21582;DHT22;10952;50.836;4.348;2023-07-16T06:09:14;17.80;99.90
21582;DHT22;10952;50.836;4.348;2023-07-16T06:11:40;17.80;99.90
21582;DHT22;10952;50.836;4.348;2023-07-16T06:14:06;17.70;99.90
21582;DHT22;10952;50.836;4.348;2023-07-16T06:16:31;17.80;99.90
21582;DHT22;10952;50.836;4.348;2023-07-16T06:18:57;17.80;99.90
21582;DHT22;10952;50.836;4.348;2023-07-16T06:21:23;17.90;99.90
21582;DHT22;10952;50.836;4.348;2023-07-16T06:23:48;17.80;99.90
21582;DHT22;10952;50.836;4.348;2023-07-16T06:26:14;17.90;99.90
21582;DHT22;10952;50.836;4.348;2023-07-16T06:28:40;17.80;99.90
21582;DHT22;10952;50.836;4.348;2023-07-16T06:31:05;17.90;99.90
21582;DHT22;10952;50.836;4.348;2023-07-16T06:33:31;17.90;99.90
21582;DHT22;10952;50.836;4.348;2023-07-16T06:35:56;18.00;99.90
21582;DHT22;10952;50.836;4.348;2023-07-16T06:38:22;18.10;99.90
21582;DHT22;10952;50.836;4.348;2023-07-16T06:40:51;18.30;99.90
21582;DHT22;10952;50.836;4.348;2023-07-16T06:43:17;18.30;99.90
21582;DHT22;10952;50.836;4.348;2023-07-16T06:45:43;18.30;99.90
21582;DHT22;10952;50.836;4.348;2023-07-16T06:48:10;18.40;99.90
21582;DHT22;10952;50.836;4.348;2023-07-16T06:50:36;18.50;99.90
21582;DHT22;10952;50.836;4.348;2023-07-16T06:53:01;18.40;99.90
21582;DHT22;10952;50.836;4.348;2023-07-16T06:55:27;18.50;99.90
21582;DHT22;10952;50.836;4.348;2023-07-16T06:57:53;18.40;99.90
21582;DHT22;10952;50.836;4.348;2023-07-16T07:00:18;18.50;99.90
21582;DHT22;10952;50.836;4.348;2023-07-16T07:02:44;18.60;99.90
21582;DHT22;10952;50.836;4.348;2023-07-16T07:05:10;18.70;99.90
21582;DHT22;10952;50.836;4.348;2023-07-16T07:07:35;18.90;99.90
21582;DHT22;10952;50.836;4.348;2023-07-16T07:10:01;19.00;99.90
21582;DHT22;10952;50.836;4.348;2023-07-16T07:12:27;19.10;99.90
21582;DHT22;10952;50.836;4.348;2023-07-16T07:14:53;19.00;99.90
21582;DHT22;10952;50.836;4.348;2023-07-16T07:17:18;19.00;99.90
21582;DHT22;10952;50.836;4.348;2023-07-16T07:19:44;19.20;99.90
21582;DHT22;10952;50.836;4.348;2023-07-16T07:22:10;19.30;99.90
21582;DHT22;10952;50.836;4.348;2023-07-16T07:24:36;19.30;99.90
21582;DHT22;10952;50.836;4.348;2023-07-16T07:27:02;19.30;99.90
21582;DHT22;10952;50.836;4.348;2023-07-16T07:29:27;19.50;99.90
21582;DHT22;10952;50.836;4.348;2023-07-16T07:31:53;19.70;99.90
21582;DHT22;10952;50.836;4.348;2023-07-16T07:34:19;19.90;99.90
21582;DHT22;10952;50.836;4.348;2023-07-16T07:36:44;20.10;99.90
21582;DHT22;10952;50.836;4.348;2023-07-16T07:39:10;20.00;99.90
21582;DHT22;10952;50.836;4.348;2023-07-16T07:41:36;20.20;99.90
21582;DHT22;10952;50.836;4.348;2023-07-16T07:44:02;20.20;99.90
21582;DHT22;10952;50.836;4.348;2023-07-16T07:46:27;20.30;99.90
21582;DHT22;10952;50.836;4.348;2023-07-16T07:48:53;20.40;99.90
21582;DHT22;10952;50.836;4.348;2023-07-16T07:51:19;20.60;99.90
21582;DHT22;10952;50.836;4.348;2023-07-16T07:53:45;20.60;99.90
21582;DHT22;10952;50.836;4.348;2023-07-16T07:56:11;20.60;99.90
21582;DHT22;10952;50.836;4.348;2023-07-16T07:58:37;20.60;99.90
21582;DHT22;10952;50.836;4.348;2023-07-16T08:01:08;20.80;99.90
21582;DHT22;10952;50.836;4.348;2023-07-16T08:03:34;20.90;99.90
21582;DHT22;10952;50.836;4.348;2023-07-16T08:06:00;21.10;99.90
21582;DHT22;10952;50.836;4.348;2023-07-16T08:08:26;21.10;99.90
21582;DHT22;10952;50.836;4.348;2023-07-16T08:10:53;21.30;99.90
21582;DHT22;10952;50.836;4.348;2023-07-16T08:13:19;21.20;99.90
21582;DHT22;10952;50.836;4.348;2023-07-16T08:15:44;21.20;99.90
21582;DHT22;10952;50.836;4.348;2023-07-16T08:18:10;20.90;99.90
21582;DHT22;10952;50.836;4.348;2023-07-16T08:20:36;20.60;99.90
21582;DHT22;10952;50.836;4.348;2023-07-16T08:23:02;20.60;99.90
21582;DHT22;10952;50.836;4.348;2023-07-16T08:25:28;20.50;99.90
21582;DHT22;10952;50.836;4.348;2023-07-16T08:27:54;20.60;99.90
21582;DHT22;10952;50.836;4.348;2023-07-16T08:30:19;20.60;99.90
21582;DHT22;10952;50.836;4.348;2023-07-16T08:32:45;20.80;99.90
21582;DHT22;10952;50.836;4.348;2023-07-16T08:35:11;21.00;99.90
21582;DHT22;10952;50.836;4.348;2023-07-16T08:37:44;21.10;99.90
21582;DHT22;10952;50.836;4.348;2023-07-16T08:40:11;21.40;99.90
21582;DHT22;10952;50.836;4.348;2023-07-16T08:42:38;21.60;99.90
21582;DHT22;10952;50.836;4.348;2023-07-16T08:45:06;21.70;99.90
21582;DHT22;10952;50.836;4.348;2023-07-16T08:47:33;21.40;99.90
21582;DHT22;10952;50.836;4.348;2023-07-16T08:50:00;21.50;99.90
21582;DHT22;10952;50.836;4.348;2023-07-16T08:52:27;21.60;99.90
21582;DHT22;10952;50.836;4.348;2023-07-16T08:54:53;21.50;99.90
21582;DHT22;10952;50.836;4.348;2023-07-16T08:57:20;21.40;99.90
21582;DHT22;10952;50.836;4.348;2023-07-16T08:59:50;21.40;99.90
21582;DHT22;10952;50.836;4.348;2023-07-16T09:02:19;21.40;99.90
21582;DHT22;10952;50.836;4.348;2023-07-16T09:04:49;21.40;99.90
21582;DHT22;10952;50.836;4.348;2023-07-16T09:07:17;21.60;99.90
21582;DHT22;10952;50.836;4.348;2023-07-16T09:09:42;21.80;99.90
21582;DHT22;10952;50.836;4.348;2023-07-16T09:12:12;21.90;99.90
21582;DHT22;10952;50.836;4.348;2023-07-16T09:14:37;22.30;99.90
21582;DHT22;10952;50.836;4.348;2023-07-16T09:17:03;22.30;99.90
21582;DHT22;10952;50.836;4.348;2023-07-16T09:19:32;22.30;99.90
21582;DHT22;10952;50.836;4.348;2023-07-16T09:21:58;22.30;99.90
21582;DHT22;10952;50.836;4.348;2023-07-16T09:24:23;22.50;99.90
21582;DHT22;10952;50.836;4.348;2023-07-16T09:26:50;22.40;99.90
21582;DHT22;10952;50.836;4.348;2023-07-16T09:29:17;22.20;99.90
21582;DHT22;10952;50.836;4.348;2023-07-16T09:34:19;22.60;99.90
21582;DHT22;10952;50.836;4.348;2023-07-16T09:36:47;22.60;99.90
21582;DHT22;10952;50.836;4.348;2023-07-16T09:39:18;22.30;99.90
21582;DHT22;10952;50.836;4.348;2023-07-16T09:41:49;22.20;99.90
21582;DHT22;10952;50.836;4.348;2023-07-16T09:44:15;22.00;99.90
21582;DHT22;10952;50.836;4.348;2023-07-16T09:46:41;22.40;99.90
21582;DHT22;10952;50.836;4.348;2023-07-16T09:49:07;23.00;99.90
21582;DHT22;10952;50.836;4.348;2023-07-16T09:51:35;23.40;99.90
21582;DHT22;10952;50.836;4.348;2023-07-16T09:54:02;23.10;99.90
21582;DHT22;10952;50.836;4.348;2023-07-16T09:56:35;22.90;99.90
21582;DHT22;10952;50.836;4.348;2023-07-16T09:59:02;22.80;99.90
21582;DHT22;10952;50.836;4.348;2023-07-16T10:01:31;22.60;99.90
21582;DHT22;10952;50.836;4.348;2023-07-16T10:03:57;22.50;99.90
21582;DHT22;10952;50.836;4.348;2023-07-16T10:06:22;22.50;99.90
21582;DHT22;10952;50.836;4.348;2023-07-16T10:08:51;22.30;99.90
21582;DHT22;10952;50.836;4.348;2023-07-16T10:11:18;22.10;99.90
21582;DHT22;10952;50.836;4.348;2023-07-16T10:13:49;22.00;99.90
21582;DHT22;10952;50.836;4.348;2023-07-16T10:16:22;21.80;99.90
21582;DHT22;10952;50.836;4.348;2023-07-16T10:18:51;21.70;99.90
21582;DHT22;10952;50.836;4.348;2023-07-16T10:21:26;21.50;99.90
21582;DHT22;10952;50.836;4.348;2023-07-16T10:23:58;21.50;99.90
21582;DHT22;10952;50.836;4.348;2023-07-16T10:26:28;21.60;99.90
21582;DHT22;10952;50.836;4.348;2023-07-16T10:28:54;21.60;99.90
21582;DHT22;10952;50.836;4.348;2023-07-16T10:31:25;21.70;99.90
21582;DHT22;10952;50.836;4.348;2023-07-16T10:34:17;21.90;99.90
21582;DHT22;10952;50.836;4.348;2023-07-16T10:36:42;21.80;99.90
21582;DHT22;10952;50.836;4.348;2023-07-16T10:39:08;21.70;99.90
21582;DHT22;10952;50.836;4.348;2023-07-16T10:41:34;21.50;99.90
21582;DHT22;10952;50.836;4.348;2023-07-16T10:44:00;21.50;99.90
21582;DHT22;10952;50.836;4.348;2023-07-16T10:46:27;21.50;99.90
21582;DHT22;10952;50.836;4.348;2023-07-16T10:48:52;21.70;99.90
21582;DHT22;10952;50.836;4.348;2023-07-16T10:51:25;22.00;99.90
21582;DHT22;10952;50.836;4.348;2023-07-16T10:53:51;22.20;99.90
21582;DHT22;10952;50.836;4.348;2023-07-16T10:56:16;22.30;99.90
21582;DHT22;10952;50.836;4.348;2023-07-16T10:58:42;22.50;99.90
21582;DHT22;10952;50.836;4.348;2023-07-16T11:01:09;22.40;99.90
21582;DHT22;10952;50.836;4.348;2023-07-16T11:03:35;22.40;99.90
21582;DHT22;10952;50.836;4.348;2023-07-16T11:06:09;22.40;99.90
21582;DHT22;10952;50.836;4.348;2023-07-16T11:08:35;22.10;99.90
21582;DHT22;10952;50.836;4.348;2023-07-16T11:11:00;22.00;99.90
21582;DHT22;10952;50.836;4.348;2023-07-16T11:13:31;21.70;99.90
21582;DHT22;10952;50.836;4.348;2023-07-16T11:16:06;21.30;99.90
21582;DHT22;10952;50.836;4.348;2023-07-16T11:18:32;21.10;99.90
21582;DHT22;10952;50.836;4.348;2023-07-16T11:20:59;21.10;99.90
21582;DHT22;10952;50.836;4.348;2023-07-16T11:23:25;21.00;99.90
21582;DHT22;10952;50.836;4.348;2023-07-16T11:25:52;21.10;99.90
21582;DHT22;10952;50.836;4.348;2023-07-16T11:28:18;21.20;99.90
21582;DHT22;10952;50.836;4.348;2023-07-16T11:30:43;21.50;99.90
21582;DHT22;10952;50.836;4.348;2023-07-16T11:33:12;22.10;99.90
21582;DHT22;10952;50.836;4.348;2023-07-16T11:35:39;22.50;99.90
21582;DHT22;10952;50.836;4.348;2023-07-16T11:38:05;22.60;99.90
21582;DHT22;10952;50.836;4.348;2023-07-16T11:40:35;22.60;99.90
21582;DHT22;10952;50.836;4.348;2023-07-16T11:43:10;23.10;99.90
21582;DHT22;10952;50.836;4.348;2023-07-16T11:45:36;23.80;99.90
21582;DHT22;10952;50.836;4.348;2023-07-16T11:48:02;23.80;99.90
21582;DHT22;10952;50.836;4.348;2023-07-16T11:50:29;23.60;99.90
21582;DHT22;10952;50.836;4.348;2023-07-16T11:52:58;24.00;99.90
21582;DHT22;10952;50.836;4.348;2023-07-16T11:55:24;25.00;99.90
21582;DHT22;10952;50.836;4.348;2023-07-16T11:57:50;26.30;99.90
21582;DHT22;10952;50.836;4.348;2023-07-16T12:00:16;27.10;99.90
21582;DHT22;10952;50.836;4.348;2023-07-16T12:02:43;26.90;99.90
21582;DHT22;10952;50.836;4.348;2023-07-16T12:05:09;27.00;99.90
21582;DHT22;10952;50.836;4.348;2023-07-16T12:07:38;27.50;99.90
21582;DHT22;10952;50.836;4.348;2023-07-16T12:10:05;27.80;99.90
21582;DHT22;10952;50.836;4.348;2023-07-16T12:12:32;28.10;99.90
21582;DHT22;10952;50.836;4.348;2023-07-16T12:14:59;27.50;99.90
21582;DHT22;10952;50.836;4.348;2023-07-16T12:17:25;27.20;99.90
21582;DHT22;10952;50.836;4.348;2023-07-16T12:19:50;27.00;99.90
21582;DHT22;10952;50.836;4.348;2023-07-16T12:22:17;26.80;99.90
21582;DHT22;10952;50.836;4.348;2023-07-16T12:24:43;26.50;99.90
21582;DHT22;10952;50.836;4.348;2023-07-16T12:27:09;26.10;99.90
21582;DHT22;10952;50.836;4.348;2023-07-16T12:29:34;25.60;99.90
21582;DHT22;10952;50.836;4.348;2023-07-16T12:32:00;25.10;99.90
21582;DHT22;10952;50.836;4.348;2023-07-16T12:34:26;24.90;99.90
21582;DHT22;10952;50.836;4.348;2023-07-16T12:36:52;24.50;99.90
21582;DHT22;10952;50.836;4.348;2023-07-16T12:39:18;24.00;99.90
21582;DHT22;10952;50.836;4.348;2023-07-16T12:41:44;23.80;99.90
21582;DHT22;10952;50.836;4.348;2023-07-16T12:44:10;24.30;99.90
21582;DHT22;10952;50.836;4.348;2023-07-16T12:46:35;25.30;99.90
21582;DHT22;10952;50.836;4.348;2023-07-16T12:49:01;25.90;99.90
21582;DHT22;10952;50.836;4.348;2023-07-16T12:51:26;26.20;99.90
21582;DHT22;10952;50.836;4.348;2023-07-16T12:53:52;26.00;99.90
21582;DHT22;10952;50.836;4.348;2023-07-16T12:56:19;25.60;99.90
21582;DHT22;10952;50.836;4.348;2023-07-16T12:58:44;25.50;99.90
21582;DHT22;10952;50.836;4.348;2023-07-16T13:01:10;25.30;99.90
21582;DHT22;10952;50.836;4.348;2023-07-16T13:03:35;25.30;99.90
21582;DHT22;10952;50.836;4.348;2023-07-16T13:06:01;25.50;99.90
21582;DHT22;10952;50.836;4.348;2023-07-16T13:08:29;25.50;99.90
21582;DHT22;10952;50.836;4.348;2023-07-16T13:10:55;25.50;99.90
21582;DHT22;10952;50.836;4.348;2023-07-16T13:13:20;25.40;99.90
21582;DHT22;10952;50.836;4.348;2023-07-16T13:15:46;25.20;99.90
21582;DHT22;10952;50.836;4.348;2023-07-16T13:18:12;25.30;99.90
21582;DHT22;10952;50.836;4.348;2023-07-16T13:20:38;24.90;99.90
21582;DHT22;10952;50.836;4.348;2023-07-16T13:23:04;24.80;99.90
21582;DHT22;10952;50.836;4.348;2023-07-16T13:25:29;24.70;99.90
21582;DHT22;10952;50.836;4.348;2023-07-16T13:27:56;24.50;99.90
21582;DHT22;10952;50.836;4.348;2023-07-16T13:30:22;24.50;99.90
21582;DHT22;10952;50.836;4.348;2023-07-16T13:32:48;24.40;99.90
21582;DHT22;10952;50.836;4.348;2023-07-16T13:35:17;24.00;99.90
21582;DHT22;10952;50.836;4.348;2023-07-16T13:37:43;23.70;99.90
21582;DHT22;10952;50.836;4.348;2023-07-16T13:40:09;23.40;99.90
21582;DHT22;10952;50.836;4.348;2023-07-16T13:42:34;23.30;99.90
21582;DHT22;10952;50.836;4.348;2023-07-16T13:45:00;23.00;99.90
21582;DHT22;10952;50.836;4.348;2023-07-16T13:47:25;22.90;99.90
21582;DHT22;10952;50.836;4.348;2023-07-16T13:49:51;23.00;99.90
21582;DHT22;10952;50.836;4.348;2023-07-16T13:52:17;23.30;99.90
21582;DHT22;10952;50.836;4.348;2023-07-16T13:54:43;23.40;99.90
21582;DHT22;10952;50.836;4.348;2023-07-16T13:57:09;23.20;99.90
21582;DHT22;10952;50.836;4.348;2023-07-16T13:59:35;23.10;99.90
21582;DHT22;10952;50.836;4.348;2023-07-16T14:02:02;23.10;99.90
21582;DHT22;10952;50.836;4.348;2023-07-16T14:04:28;23.20;99.90
21582;DHT22;10952;50.836;4.348;2023-07-16T14:06:54;23.70;99.90
21582;DHT22;10952;50.836;4.348;2023-07-16T14:09:20;24.20;99.90
21582;DHT22;10952;50.836;4.348;2023-07-16T14:11:46;24.60;99.90
21582;DHT22;10952;50.836;4.348;2023-07-16T14:14:16;24.60;99.90
21582;DHT22;10952;50.836;4.348;2023-07-16T14:16:42;24.40;99.90
21582;DHT22;10952;50.836;4.348;2023-07-16T14:19:09;24.60;99.90
21582;DHT22;10952;50.836;4.348;2023-07-16T14:21:34;24.40;99.90
21582;DHT22;10952;50.836;4.348;2023-07-16T14:24:00;24.40;99.90
21582;DHT22;10952;50.836;4.348;2023-07-16T14:26:26;24.60;99.90
21582;DHT22;10952;50.836;4.348;2023-07-16T14:28:51;24.50;99.90
21582;DHT22;10952;50.836;4.348;2023-07-16T14:31:18;24.80;99.90
21582;DHT22;10952;50.836;4.348;2023-07-16T14:33:43;25.00;99.90
21582;DHT22;10952;50.836;4.348;2023-07-16T14:36:09;25.10;99.90
21582;DHT22;10952;50.836;4.348;2023-07-16T14:38:35;25.10;99.90
21582;DHT22;10952;50.836;4.348;2023-07-16T14:41:00;25.20;99.90
21582;DHT22;10952;50.836;4.348;2023-07-16T14:43:26;25.10;99.90
21582;DHT22;10952;50.836;4.348;2023-07-16T14:45:51;24.90;99.90
21582;DHT22;10952;50.836;4.348;2023-07-16T14:48:17;24.80;99.90
21582;DHT22;10952;50.836;4.348;2023-07-16T14:50:43;24.90;99.90
21582;DHT22;10952;50.836;4.348;2023-07-16T14:53:08;25.10;99.90
21582;DHT22;10952;50.836;4.348;2023-07-16T14:55:34;25.20;99.90
21582;DHT22;10952;50.836;4.348;2023-07-16T14:58:00;25.40;99.90
21582;DHT22;10952;50.836;4.348;2023-07-16T15:00:25;25.20;98.30
21582;DHT22;10952;50.836;4.348;2023-07-16T15:02:51;24.80;98.70
21582;DHT22;10952;50.836;4.348;2023-07-16T15:05:17;24.80;99.00
21582;DHT22;10952;50.836;4.348;2023-07-16T15:07:43;24.80;99.10
21582;DHT22;10952;50.836;4.348;2023-07-16T15:10:09;24.80;98.90
21582;DHT22;10952;50.836;4.348;2023-07-16T15:12:35;24.70;99.00
21582;DHT22;10952;50.836;4.348;2023-07-16T15:15:00;24.60;99.30
21582;DHT22;10952;50.836;4.348;2023-07-16T15:17:26;24.60;99.20
21582;DHT22;10952;50.836;4.348;2023-07-16T15:19:53;24.70;99.60
21582;DHT22;10952;50.836;4.348;2023-07-16T15:22:18;24.60;99.80
21582;DHT22;10952;50.836;4.348;2023-07-16T15:24:46;24.80;99.80
21582;DHT22;10952;50.836;4.348;2023-07-16T15:27:12;24.90;99.70
21582;DHT22;10952;50.836;4.348;2023-07-16T15:29:38;25.10;99.60
21582;DHT22;10952;50.836;4.348;2023-07-16T15:32:05;25.40;99.50
21582;DHT22;10952;50.836;4.348;2023-07-16T15:34:31;26.10;99.10